createdAt,value
2023-05-12T00:01:24.066Z,13.83
2023-05-12T00:03:53.605Z,13.74
2023-05-12T00:06:20.987Z,13.71
2023-05-12T00:08:47.556Z,13.84
2023-05-12T00:11:14.258Z,13.93
2023-05-12T00:13:41.025Z,13.94
2023-05-12T00:16:07.813Z,13.94
2023-05-12T00:18:34.492Z,13.91
2023-05-12T00:21:01.192Z,13.82
2023-05-12T00:23:27.863Z,13.75
2023-05-12T00:25:54.526Z,13.72
2023-05-12T00:28:21.138Z,13.67
2023-05-12T00:30:47.813Z,13.57
2023-05-12T00:33:14.554Z,13.54
2023-05-12T00:35:41.251Z,13.56
2023-05-12T00:38:08.089Z,13.53
2023-05-12T00:40:34.857Z,13.53
2023-05-12T00:43:01.560Z,13.50
2023-05-12T00:45:29.832Z,13.56
2023-05-12T00:47:57.310Z,13.53
2023-05-12T00:50:25.093Z,13.49
2023-05-12T00:52:52.658Z,13.48
2023-05-12T00:55:19.708Z,13.42
2023-05-12T00:57:46.620Z,13.43
2023-05-12T01:00:15.528Z,13.42
2023-05-12T01:02:44.717Z,13.42
2023-05-12T01:05:11.924Z,13.37
2023-05-12T01:07:40.374Z,13.27
2023-05-12T01:10:21.401Z,13.25
2023-05-12T01:12:48.627Z,13.28
2023-05-12T01:15:19.184Z,13.24
2023-05-12T01:17:56.314Z,13.20
2023-05-12T01:20:26.914Z,13.17
2023-05-12T01:22:55.438Z,13.10
2023-05-12T01:25:24.590Z,13.09
2023-05-12T01:27:52.891Z,13.11
2023-05-12T01:30:22.039Z,13.16
2023-05-12T01:32:49.145Z,13.22
2023-05-12T01:35:16.349Z,13.24
2023-05-12T01:37:48.888Z,13.21
2023-05-12T01:40:16.460Z,13.23
2023-05-12T01:42:43.466Z,13.20
2023-05-12T01:45:11.953Z,13.15
2023-05-12T01:47:38.713Z,13.12
2023-05-12T01:50:07.893Z,13.01
2023-05-12T01:52:34.855Z,12.99
2023-05-12T01:55:01.885Z,12.98
2023-05-12T01:57:34.706Z,12.98
2023-05-12T02:00:02.232Z,12.99
2023-05-12T02:02:31.531Z,12.96
2023-05-12T02:04:59.633Z,12.92
2023-05-12T02:07:26.224Z,12.87
2023-05-12T02:09:53.126Z,12.86
2023-05-12T02:12:20.358Z,12.80
2023-05-12T02:14:47.155Z,12.80
2023-05-12T02:17:14.480Z,12.73
2023-05-12T02:19:41.376Z,12.69
2023-05-12T02:22:10.836Z,12.72
2023-05-12T02:24:37.463Z,12.72
2023-05-12T02:27:04.359Z,12.68
2023-05-12T02:29:31.017Z,12.63
2023-05-12T02:31:59.643Z,12.62
2023-05-12T02:34:26.674Z,12.64
2023-05-12T02:36:53.319Z,12.63
2023-05-12T02:39:20.002Z,12.59
2023-05-12T02:41:46.893Z,12.59
2023-05-12T02:44:13.588Z,12.56
2023-05-12T02:46:40.340Z,12.55
2023-05-12T02:49:07.221Z,12.51
2023-05-12T02:51:33.828Z,12.45
2023-05-12T02:54:01.392Z,12.42
2023-05-12T02:56:28.980Z,12.40
2023-05-12T02:58:55.620Z,12.40
2023-05-12T03:01:22.251Z,12.40
2023-05-12T03:03:49.048Z,12.39
2023-05-12T03:06:16.065Z,12.36
2023-05-12T03:08:42.696Z,12.35
2023-05-12T03:11:09.288Z,12.36
2023-05-12T03:13:36.042Z,12.28
2023-05-12T03:16:02.863Z,12.22
2023-05-12T03:18:30.406Z,12.20
2023-05-12T03:20:57.126Z,12.21
2023-05-12T03:23:24.707Z,12.22
2023-05-12T03:25:51.608Z,12.21
2023-05-12T03:28:18.331Z,12.20
2023-05-12T03:30:45.119Z,12.20
2023-05-12T03:33:11.798Z,12.19
2023-05-12T03:35:38.484Z,12.26
2023-05-12T03:38:05.241Z,12.29
2023-05-12T03:40:32.007Z,12.26
2023-05-12T03:42:59.622Z,12.35
2023-05-12T03:45:26.284Z,12.41
2023-05-12T03:47:53.602Z,12.41
2023-05-12T03:50:20.431Z,12.42
2023-05-12T03:52:47.217Z,12.49
2023-05-12T03:55:15.494Z,12.52
2023-05-12T03:57:42.809Z,12.59
2023-05-12T04:00:10.005Z,12.57
2023-05-12T04:02:39.860Z,12.58
2023-05-12T04:05:08.621Z,12.60
2023-05-12T04:07:35.804Z,12.60
2023-05-12T04:10:03.034Z,12.63
2023-05-12T04:12:30.045Z,12.63
2023-05-12T04:14:57.266Z,12.58
2023-05-12T04:17:25.106Z,12.60
2023-05-12T04:19:53.432Z,12.62
2023-05-12T04:22:20.201Z,12.63
2023-05-12T04:24:46.871Z,12.64
2023-05-12T04:27:13.498Z,12.66
2023-05-12T04:29:40.428Z,12.70
2023-05-12T04:32:07.755Z,12.76
2023-05-12T04:34:35.104Z,12.75
2023-05-12T04:37:01.950Z,12.72
2023-05-12T04:39:29.712Z,12.70
2023-05-12T04:41:57.540Z,12.68
2023-05-12T04:44:24.831Z,12.68
2023-05-12T04:46:54.054Z,12.72
2023-05-12T04:49:20.823Z,12.82
2023-05-12T04:51:48.121Z,12.86
2023-05-12T04:54:14.872Z,12.89
2023-05-12T04:56:42.335Z,12.82
2023-05-12T04:59:09.195Z,12.81
2023-05-12T05:01:36.028Z,12.88
2023-05-12T05:04:03.143Z,12.89
2023-05-12T05:06:31.769Z,12.92
2023-05-12T05:08:59.713Z,12.92
2023-05-12T05:11:26.746Z,12.97
2023-05-12T05:13:53.396Z,13.01
2023-05-12T05:16:20.494Z,13.11
2023-05-12T05:18:48.002Z,13.17
2023-05-12T05:21:15.099Z,13.23
2023-05-12T05:23:42.428Z,13.37
2023-05-12T05:26:09.689Z,13.47
2023-05-12T05:28:39.766Z,13.44
2023-05-12T05:31:07.458Z,13.37
2023-05-12T05:33:35.349Z,13.45
2023-05-12T05:36:03.247Z,13.51
2023-05-12T05:38:31.121Z,13.59
2023-05-12T05:40:57.826Z,13.84
2023-05-12T05:43:25.986Z,14.03
2023-05-12T05:45:53.342Z,14.17
2023-05-12T05:48:21.835Z,14.23
2023-05-12T05:50:51.253Z,14.32
2023-05-12T05:53:19.619Z,14.44
2023-05-12T05:55:49.580Z,14.56
2023-05-12T05:58:16.548Z,14.68
2023-05-12T06:00:44.383Z,14.77
2023-05-12T06:03:11.651Z,14.88
2023-05-12T06:05:38.730Z,14.95
2023-05-12T06:08:08.914Z,15.04
2023-05-12T06:10:35.553Z,15.17
2023-05-12T06:13:02.218Z,15.23
2023-05-12T06:15:28.895Z,15.30
2023-05-12T06:17:55.757Z,15.29
2023-05-12T06:20:23.441Z,15.21
2023-05-12T06:22:50.127Z,15.29
2023-05-12T06:25:17.669Z,15.43
2023-05-12T06:27:44.330Z,15.56
2023-05-12T06:30:14.344Z,15.70
2023-05-12T06:32:42.568Z,15.83
2023-05-12T06:35:09.562Z,15.88
2023-05-12T06:37:36.376Z,15.92
2023-05-12T06:40:03.325Z,16.05
2023-05-12T06:42:30.732Z,16.14
2023-05-12T06:44:57.377Z,16.22
2023-05-12T06:47:24.076Z,16.18
2023-05-12T06:49:50.890Z,16.24
2023-05-12T06:52:17.654Z,16.31
2023-05-12T06:54:44.281Z,16.34
2023-05-12T06:57:10.915Z,16.38
2023-05-12T06:59:37.502Z,16.37
2023-05-12T07:02:04.254Z,16.54
2023-05-12T07:04:31.064Z,16.53
2023-05-12T07:06:57.800Z,16.51
2023-05-12T07:09:24.574Z,16.50
2023-05-12T07:11:53.199Z,16.68
2023-05-12T07:14:19.853Z,16.76
2023-05-12T07:16:46.838Z,16.83
2023-05-12T07:19:13.542Z,16.94
2023-05-12T07:21:40.491Z,17.02
2023-05-12T07:24:08.341Z,17.04
2023-05-12T07:26:35.056Z,17.11
2023-05-12T07:29:02.651Z,17.15
2023-05-12T07:31:29.464Z,17.26
2023-05-12T07:33:56.149Z,17.25
2023-05-12T07:36:23.089Z,17.26
2023-05-12T07:38:49.884Z,17.38
2023-05-12T07:41:17.401Z,17.56
2023-05-12T07:43:44.222Z,17.66
2023-05-12T07:46:10.997Z,17.63
2023-05-12T07:48:40.150Z,17.70
2023-05-12T07:51:07.480Z,17.68
2023-05-12T07:53:34.443Z,17.76
2023-05-12T07:56:02.177Z,17.88
2023-05-12T07:58:28.920Z,18.03
2023-05-12T08:00:57.050Z,18.19
2023-05-12T08:03:23.790Z,18.24
2023-05-12T08:05:50.511Z,18.34
2023-05-12T08:08:17.309Z,18.42
2023-05-12T08:10:44.581Z,18.52
2023-05-12T08:13:11.350Z,18.59
2023-05-12T08:15:38.718Z,18.73
2023-05-12T08:18:05.702Z,18.81
2023-05-12T08:20:32.408Z,18.90
2023-05-12T08:22:58.989Z,19.04
2023-05-12T08:25:27.809Z,19.05
2023-05-12T08:27:54.401Z,19.28
2023-05-12T08:30:21.097Z,19.39
2023-05-12T08:32:47.917Z,19.61
2023-05-12T08:35:14.737Z,19.84
2023-05-12T08:37:41.421Z,19.83
2023-05-12T08:40:17.592Z,19.93
2023-05-12T08:42:58.390Z,20.12
2023-05-12T08:45:26.889Z,20.24
2023-05-12T08:47:54.510Z,20.45
2023-05-12T08:50:23.394Z,20.78
2023-05-12T08:52:50.257Z,21.16
2023-05-12T08:55:19.309Z,21.34
2023-05-12T08:57:48.467Z,21.48
2023-05-12T09:00:16.446Z,21.52
2023-05-12T09:02:53.259Z,21.64
2023-05-12T09:05:22.062Z,21.62
2023-05-12T09:07:50.111Z,21.52
2023-05-12T09:10:32.979Z,21.99
2023-05-12T09:13:13.149Z,22.24
2023-05-12T09:15:43.164Z,22.23
2023-05-12T09:18:11.229Z,22.54
2023-05-12T09:20:37.887Z,22.71
2023-05-12T09:23:19.059Z,22.97
2023-05-12T09:25:47.219Z,23.39
2023-05-12T09:28:15.338Z,24.11
2023-05-12T09:30:42.600Z,25.59
2023-05-12T09:33:12.291Z,27.05
2023-05-12T09:35:44.250Z,27.47
2023-05-12T09:38:13.009Z,27.58
2023-05-12T09:40:40.070Z,26.74
2023-05-12T09:43:07.839Z,26.18
2023-05-12T09:45:38.983Z,25.90
2023-05-12T09:48:11.021Z,25.35
2023-05-12T09:50:51.295Z,24.57
2023-05-12T09:53:19.171Z,25.33
2023-05-12T09:55:47.662Z,26.92
2023-05-12T09:58:19.448Z,26.46
2023-05-12T10:03:18.464Z,23.11
2023-05-12T10:05:50.051Z,22.60
2023-05-12T10:08:22.624Z,22.81
2023-05-12T10:10:52.264Z,23.03
2023-05-12T10:13:19.089Z,24.29
2023-05-12T10:15:48.303Z,25.19
2023-05-12T10:18:16.660Z,26.25
2023-05-12T10:20:47.674Z,26.21
2023-05-12T10:23:16.921Z,25.30
2023-05-12T10:25:44.616Z,25.25
2023-05-12T10:28:11.847Z,25.39
2023-05-12T10:30:40.228Z,26.66
2023-05-12T10:33:09.850Z,26.85
2023-05-12T10:35:37.896Z,27.90
2023-05-12T10:38:09.694Z,26.29
2023-05-12T10:40:36.384Z,25.54
2023-05-12T10:43:03.623Z,25.11
2023-05-12T10:45:37.258Z,24.29
2023-05-12T10:48:09.048Z,23.62
2023-05-12T10:50:35.744Z,23.22
2023-05-12T10:53:02.437Z,24.45
2023-05-12T10:55:32.217Z,24.24
2023-05-12T10:58:25.944Z,23.69
2023-05-12T11:00:55.019Z,23.53
2023-05-12T11:03:27.249Z,23.86
2023-05-12T11:06:05.376Z,24.25
2023-05-12T11:08:35.713Z,24.66
2023-05-12T11:11:03.308Z,25.80
2023-05-12T11:13:32.707Z,27.32
2023-05-12T11:15:59.454Z,26.28
2023-05-12T11:18:26.136Z,25.23
2023-05-12T11:20:52.834Z,24.26
2023-05-12T11:23:29.482Z,23.53
2023-05-12T11:25:57.095Z,23.14
2023-05-12T11:28:23.970Z,22.77
2023-05-12T11:30:55.184Z,22.30
2023-05-12T11:33:23.226Z,21.77
2023-05-12T11:35:50.723Z,21.34
2023-05-12T11:38:18.991Z,21.14
2023-05-12T11:40:45.808Z,20.88
2023-05-12T11:43:15.132Z,20.63
2023-05-12T11:45:42.247Z,20.58
2023-05-12T11:48:13.958Z,20.54
2023-05-12T11:50:43.788Z,20.71
2023-05-12T11:53:17.194Z,21.04
2023-05-12T11:55:56.867Z,22.60
2023-05-12T11:58:26.873Z,25.02
2023-05-12T12:00:54.525Z,26.90
2023-05-12T12:03:21.435Z,26.39
2023-05-12T12:06:03.749Z,25.24
2023-05-12T12:08:31.053Z,24.07
2023-05-12T12:10:58.052Z,23.30
2023-05-12T12:13:26.152Z,22.43
2023-05-12T12:15:55.255Z,22.07
2023-05-12T12:18:21.905Z,21.68
2023-05-12T12:20:48.725Z,21.41
2023-05-12T12:23:15.470Z,21.15
2023-05-12T12:25:43.586Z,21.08
2023-05-12T12:28:10.357Z,20.96
2023-05-12T12:30:37.612Z,21.04
2023-05-12T12:33:04.271Z,21.04
2023-05-12T12:35:31.192Z,21.20
2023-05-12T12:37:58.276Z,21.63
2023-05-12T12:40:25.035Z,22.07
2023-05-12T12:42:51.786Z,22.98
2023-05-12T12:45:20.706Z,24.06
2023-05-12T12:47:47.637Z,24.73
2023-05-12T12:50:15.294Z,25.08
2023-05-12T12:52:42.091Z,25.39
2023-05-12T12:55:09.956Z,25.25
2023-05-12T12:57:36.767Z,24.52
2023-05-12T13:00:05.603Z,23.78
2023-05-12T13:02:33.202Z,23.24
2023-05-12T13:05:04.096Z,22.77
2023-05-12T13:07:30.776Z,22.34
2023-05-12T13:09:57.892Z,22.16
2023-05-12T13:12:24.707Z,22.01
2023-05-12T13:14:52.911Z,21.85
2023-05-12T13:17:19.564Z,21.79
2023-05-12T13:19:46.245Z,21.59
2023-05-12T13:22:12.857Z,21.36
2023-05-12T13:24:39.522Z,21.14
2023-05-12T13:27:08.623Z,20.91
2023-05-12T13:29:36.177Z,20.84
2023-05-12T13:32:03.678Z,20.61
2023-05-12T13:34:30.431Z,20.42
2023-05-12T13:36:57.242Z,20.47
2023-05-12T13:39:23.818Z,20.56
2023-05-12T13:41:50.831Z,20.72
2023-05-12T13:44:17.517Z,20.91
2023-05-12T13:46:44.245Z,21.06
2023-05-12T13:49:11.037Z,21.52
2023-05-12T13:51:38.332Z,22.42
2023-05-12T13:54:04.875Z,22.37
2023-05-12T13:56:31.600Z,22.42
2023-05-12T13:58:58.499Z,23.83
2023-05-12T14:01:25.634Z,24.68
2023-05-12T14:03:52.244Z,24.29
2023-05-12T14:06:19.921Z,23.86
2023-05-12T14:08:46.583Z,23.21
2023-05-12T14:11:13.338Z,22.55
2023-05-12T14:13:40.124Z,22.14
2023-05-12T14:16:07.103Z,21.58
2023-05-12T14:18:33.789Z,21.09
2023-05-12T14:21:01.611Z,20.87
2023-05-12T14:23:28.373Z,20.66
2023-05-12T14:25:55.586Z,20.50
2023-05-12T14:28:23.373Z,20.40
2023-05-12T14:30:50.610Z,20.22
2023-05-12T14:33:17.606Z,20.14
2023-05-12T14:35:52.763Z,19.93
2023-05-12T14:38:22.881Z,19.87
2023-05-12T14:40:50.043Z,19.87
2023-05-12T14:43:17.279Z,19.90
2023-05-12T14:45:44.431Z,19.85
2023-05-12T14:48:11.451Z,19.85
2023-05-12T14:50:38.165Z,19.83
2023-05-12T14:53:06.274Z,19.87
2023-05-12T14:55:33.576Z,19.81
2023-05-12T14:58:00.403Z,19.79
2023-05-12T15:00:27.354Z,19.75
2023-05-12T15:02:54.097Z,19.75
2023-05-12T15:05:22.792Z,19.78
2023-05-12T15:07:52.278Z,19.83
2023-05-12T15:10:19.869Z,19.83
2023-05-12T15:12:46.440Z,19.93
2023-05-12T15:15:13.165Z,19.89
2023-05-12T15:17:39.894Z,19.99
2023-05-12T15:20:07.949Z,19.97
2023-05-12T15:22:34.573Z,19.91
2023-05-12T15:25:01.532Z,19.84
2023-05-12T15:27:28.204Z,19.75
2023-05-12T15:29:55.399Z,19.70
2023-05-12T15:32:22.263Z,19.69
2023-05-12T15:34:49.083Z,19.67
2023-05-12T15:37:15.738Z,19.75
2023-05-12T15:39:42.679Z,19.75
2023-05-12T15:42:10.719Z,19.78
2023-05-12T15:44:38.993Z,19.73
2023-05-12T15:47:06.117Z,19.73
2023-05-12T15:49:32.801Z,19.78
2023-05-12T15:51:59.422Z,19.88
2023-05-12T15:54:26.601Z,20.00
2023-05-12T15:56:53.224Z,20.02
2023-05-12T15:59:19.881Z,19.98
2023-05-12T16:01:46.766Z,19.99
2023-05-12T16:04:13.494Z,19.88
2023-05-12T16:06:40.503Z,19.81
2023-05-12T16:09:08.329Z,19.76
2023-05-12T16:11:35.002Z,19.57
2023-05-12T16:14:02.709Z,19.50
2023-05-12T16:16:30.134Z,19.42
2023-05-12T16:18:56.888Z,19.36
2023-05-12T16:21:23.932Z,19.27
2023-05-12T16:23:50.534Z,19.17
2023-05-12T16:26:19.323Z,19.15
2023-05-12T16:28:46.352Z,19.14
2023-05-12T16:31:17.904Z,19.24
2023-05-12T16:33:44.837Z,19.33
2023-05-12T16:36:11.528Z,19.30
2023-05-12T16:38:38.389Z,19.24
2023-05-12T16:41:05.310Z,19.22
2023-05-12T16:43:32.219Z,19.17
2023-05-12T16:46:01.628Z,19.14
2023-05-12T16:48:38.011Z,19.11
2023-05-12T16:51:09.125Z,19.04
2023-05-12T16:53:36.518Z,19.02
2023-05-12T16:56:03.244Z,19.01
2023-05-12T16:58:33.492Z,19.00
2023-05-12T17:01:01.050Z,18.72
2023-05-12T17:03:28.757Z,18.42
2023-05-12T17:05:55.590Z,18.16
2023-05-12T17:08:22.359Z,17.92
2023-05-12T17:10:49.268Z,17.75
2023-05-12T17:13:17.018Z,17.72
2023-05-12T17:15:43.797Z,17.40
2023-05-12T17:18:10.572Z,17.17
2023-05-12T17:20:37.153Z,17.01
2023-05-12T17:23:03.951Z,16.96
2023-05-12T17:25:31.364Z,16.87
2023-05-12T17:27:58.441Z,16.88
2023-05-12T17:30:25.199Z,16.84
2023-05-12T17:32:52.042Z,16.85
2023-05-12T17:35:19.291Z,16.86
2023-05-12T17:37:46.072Z,16.76
2023-05-12T17:40:16.287Z,16.70
2023-05-12T17:42:43.092Z,16.70
2023-05-12T17:45:10.186Z,16.75
2023-05-12T17:47:37.411Z,16.68
2023-05-12T17:50:04.347Z,16.60
2023-05-12T17:52:31.228Z,16.58
2023-05-12T17:54:57.867Z,16.53
2023-05-12T17:57:24.521Z,16.53
2023-05-12T17:59:51.356Z,16.50
2023-05-12T18:02:18.378Z,16.47
2023-05-12T18:04:46.760Z,16.43
2023-05-12T18:07:14.811Z,16.48
2023-05-12T18:09:41.903Z,16.46
2023-05-12T18:12:09.256Z,16.37
2023-05-12T18:14:35.990Z,16.33
2023-05-12T18:17:02.709Z,16.32
2023-05-12T18:19:29.544Z,16.31
2023-05-12T18:21:56.283Z,16.25
2023-05-12T18:24:22.965Z,16.23
2023-05-12T18:26:49.898Z,16.16
2023-05-12T18:29:16.531Z,16.09
2023-05-12T18:31:44.174Z,16.07
2023-05-12T18:34:11.168Z,16.00
2023-05-12T18:36:37.824Z,15.98
2023-05-12T18:39:04.970Z,15.91
2023-05-12T18:41:31.625Z,15.83
2023-05-12T18:43:58.255Z,15.80
2023-05-12T18:46:25.705Z,15.72
2023-05-12T18:48:52.520Z,15.69
2023-05-12T18:51:19.135Z,15.68
2023-05-12T18:53:45.808Z,15.68
2023-05-12T18:56:12.568Z,15.63
2023-05-12T18:58:39.283Z,15.59
2023-05-12T19:01:06.857Z,15.57
2023-05-12T19:03:33.578Z,15.55
2023-05-12T19:06:00.197Z,15.50
2023-05-12T19:08:26.988Z,15.39
2023-05-12T19:10:53.643Z,15.32
2023-05-12T19:13:20.281Z,15.24
2023-05-12T19:15:47.263Z,15.16
2023-05-12T19:18:13.809Z,15.09
2023-05-12T19:20:40.571Z,14.95
2023-05-12T19:23:07.233Z,14.84
2023-05-12T19:25:34.105Z,14.78
2023-05-12T19:28:01.022Z,14.73
2023-05-12T19:30:29.115Z,14.63
2023-05-12T19:32:55.959Z,14.45
2023-05-12T19:35:22.992Z,14.38
2023-05-12T19:37:49.884Z,14.29
2023-05-12T19:40:16.468Z,14.21
2023-05-12T19:42:43.210Z,14.12
2023-05-12T19:45:10.694Z,14.06
2023-05-12T19:47:37.625Z,14.01
2023-05-12T19:50:04.809Z,13.97
2023-05-12T19:52:31.724Z,13.93
2023-05-12T19:54:58.387Z,13.92
2023-05-12T19:57:25.022Z,13.93
2023-05-12T19:59:51.949Z,13.94
2023-05-12T20:02:19.428Z,14.02
2023-05-12T20:04:46.804Z,14.13
2023-05-12T20:07:13.469Z,14.25
2023-05-12T20:09:40.106Z,14.24
2023-05-12T20:12:08.107Z,14.17
2023-05-12T20:14:38.444Z,14.07
2023-05-12T20:17:07.169Z,13.94
2023-05-12T20:19:33.953Z,13.86
2023-05-12T20:22:01.720Z,13.78
2023-05-12T20:24:28.609Z,13.73
2023-05-12T20:26:55.642Z,13.60
2023-05-12T20:29:22.296Z,13.54
2023-05-12T20:31:50.687Z,13.42
2023-05-12T20:34:18.589Z,13.29
2023-05-12T20:36:46.525Z,13.29
2023-05-12T20:39:14.203Z,13.22
2023-05-12T20:41:42.340Z,13.20
2023-05-12T20:44:09.338Z,13.18
2023-05-12T20:46:38.263Z,13.12
2023-05-12T20:49:06.418Z,13.03
2023-05-12T20:51:33.408Z,12.93
2023-05-12T20:54:00.156Z,12.89
2023-05-12T20:56:26.930Z,12.90
2023-05-12T20:58:53.860Z,12.77
2023-05-12T21:01:21.472Z,12.83
2023-05-12T21:03:48.541Z,12.86
2023-05-12T21:06:15.479Z,12.88
2023-05-12T21:08:42.292Z,12.94
2023-05-12T21:11:18.749Z,12.93
2023-05-12T21:13:46.996Z,12.91
2023-05-12T21:16:14.779Z,12.89
2023-05-12T21:18:41.595Z,12.89
2023-05-12T21:21:08.259Z,12.89
2023-05-12T21:23:36.445Z,12.84
2023-05-12T21:26:04.102Z,12.68
2023-05-12T21:28:31.179Z,12.59
2023-05-12T21:30:57.856Z,12.54
2023-05-12T21:33:24.472Z,12.49
2023-05-12T21:35:51.154Z,12.39
2023-05-12T21:38:17.798Z,12.32
2023-05-12T21:40:44.485Z,12.27
2023-05-12T21:43:11.197Z,12.22
2023-05-12T21:45:37.834Z,12.17
2023-05-12T21:48:04.728Z,12.14
2023-05-12T21:50:31.583Z,12.07
2023-05-12T21:52:58.205Z,11.93
2023-05-12T21:55:24.977Z,11.79
2023-05-12T21:57:51.560Z,11.74
2023-05-12T22:00:20.188Z,11.74
2023-05-12T22:02:50.592Z,11.88
2023-05-12T22:05:17.526Z,11.82
2023-05-12T22:07:44.157Z,11.81
2023-05-12T22:10:10.789Z,11.72
2023-05-12T22:12:37.961Z,11.66
2023-05-12T22:15:05.070Z,11.65
2023-05-12T22:17:31.786Z,11.60
2023-05-12T22:19:58.485Z,11.51
2023-05-12T22:22:25.167Z,11.50
2023-05-12T22:24:51.996Z,11.44
2023-05-12T22:27:22.399Z,11.37
2023-05-12T22:29:49.658Z,11.32
2023-05-12T22:32:16.520Z,11.24
2023-05-12T22:34:43.189Z,11.20
2023-05-12T22:37:09.779Z,11.15
2023-05-12T22:39:36.358Z,11.09
2023-05-12T22:42:03.266Z,10.94
2023-05-12T22:44:30.035Z,10.93
2023-05-12T22:46:57.262Z,10.99
2023-05-12T22:49:24.320Z,10.95
2023-05-12T22:51:51.420Z,10.92
2023-05-12T22:54:18.036Z,10.88
2023-05-12T22:56:44.843Z,10.84
2023-05-12T22:59:11.586Z,10.84
2023-05-12T23:01:38.269Z,10.95
2023-05-12T23:04:05.203Z,10.93
2023-05-12T23:06:32.478Z,10.92
2023-05-12T23:08:59.190Z,10.94
2023-05-12T23:11:25.884Z,10.92
2023-05-12T23:13:52.640Z,10.93
2023-05-12T23:16:19.341Z,10.88
2023-05-12T23:18:46.165Z,10.86
2023-05-12T23:21:12.890Z,10.80
2023-05-12T23:23:39.577Z,10.78
2023-05-12T23:26:06.211Z,10.80
2023-05-12T23:28:32.851Z,10.78
2023-05-12T23:30:59.506Z,10.77
2023-05-12T23:33:26.325Z,10.71
2023-05-12T23:35:52.974Z,10.64
2023-05-12T23:38:19.796Z,10.61
2023-05-12T23:40:46.384Z,10.57
2023-05-12T23:43:13.018Z,10.58
2023-05-12T23:45:39.665Z,10.54
2023-05-12T23:48:06.567Z,10.54
2023-05-12T23:50:33.246Z,10.52
2023-05-12T23:52:59.848Z,10.58
2023-05-12T23:55:26.588Z,10.55
2023-05-12T23:57:53.203Z,10.54
